createdAt,value
2022-09-17T00:02:07.553Z,11.20
2022-09-17T00:06:18.232Z,11.20
2022-09-17T00:10:27.391Z,11.20
2022-09-17T00:14:36.333Z,11.30
2022-09-17T00:18:45.434Z,11.20
2022-09-17T00:22:56.152Z,11.20
2022-09-17T00:27:06.459Z,11.20
2022-09-17T00:31:15.670Z,11.20
2022-09-17T00:35:24.772Z,11.20
2022-09-17T00:39:35.300Z,11.20
2022-09-17T00:43:46.452Z,11.20
2022-09-17T00:48:01.088Z,11.20
2022-09-17T00:52:14.771Z,11.20
2022-09-17T00:56:28.492Z,11.30
2022-09-17T01:00:37.749Z,11.30
2022-09-17T01:04:46.913Z,11.20
2022-09-17T01:09:21.030Z,11.20
2022-09-17T01:13:39.571Z,11.10
2022-09-17T01:18:00.931Z,11.00
2022-09-17T01:22:15.790Z,11.00
2022-09-17T01:26:46.829Z,11.10
2022-09-17T01:31:13.644Z,11.10
2022-09-17T01:35:32.692Z,11.10
2022-09-17T01:39:48.191Z,11.10
2022-09-17T01:44:03.755Z,11.10
2022-09-17T01:48:17.832Z,11.10
2022-09-17T01:52:29.231Z,11.10
2022-09-17T01:56:41.690Z,11.20
2022-09-17T02:00:56.440Z,11.20
2022-09-17T02:05:10.554Z,11.20
2022-09-17T02:09:23.392Z,11.20
2022-09-17T02:13:37.973Z,11.20
2022-09-17T02:17:51.209Z,11.30
2022-09-17T02:22:07.768Z,11.30
2022-09-17T02:26:21.794Z,11.30
2022-09-17T02:30:30.971Z,11.40
2022-09-17T02:34:40.671Z,11.40
2022-09-17T02:39:00.909Z,11.40
2022-09-17T02:43:16.591Z,11.50
2022-09-17T02:47:48.008Z,11.50
2022-09-17T02:52:05.170Z,11.50
2022-09-17T02:56:23.392Z,11.50
2022-09-17T03:00:33.414Z,11.50
2022-09-17T03:04:47.190Z,11.50
2022-09-17T03:08:57.551Z,11.50
2022-09-17T03:13:08.412Z,11.50
2022-09-17T03:17:17.352Z,11.50
2022-09-17T03:21:26.911Z,11.50
2022-09-17T03:25:36.372Z,11.50
2022-09-17T03:29:46.755Z,11.50
2022-09-17T03:33:55.672Z,11.50
2022-09-17T03:38:04.789Z,11.40
2022-09-17T03:42:13.850Z,11.40
2022-09-17T03:46:24.371Z,11.40
2022-09-17T03:50:33.656Z,11.40
2022-09-17T03:54:42.651Z,11.30
2022-09-17T03:58:51.608Z,11.30
2022-09-17T04:03:02.265Z,11.30
2022-09-17T04:07:11.470Z,11.20
2022-09-17T04:11:20.512Z,11.30
2022-09-17T04:15:29.630Z,11.20
2022-09-17T04:19:40.132Z,11.20
2022-09-17T04:23:49.304Z,11.20
2022-09-17T04:27:58.150Z,11.10
2022-09-17T04:32:07.471Z,11.10
2022-09-17T04:36:17.910Z,11.10
2022-09-17T04:40:28.058Z,11.10
2022-09-17T04:44:37.049Z,11.10
2022-09-17T04:48:46.050Z,11.10
2022-09-17T04:52:57.213Z,11.00
2022-09-17T04:57:06.392Z,10.90
2022-09-17T05:01:15.499Z,10.90
2022-09-17T05:05:25.350Z,10.80
2022-09-17T05:09:35.835Z,10.90
2022-09-17T05:13:44.732Z,10.80
2022-09-17T05:17:54.150Z,10.80
2022-09-17T05:22:03.251Z,10.80
2022-09-17T05:26:13.993Z,10.80
2022-09-17T05:30:22.972Z,10.70
2022-09-17T05:34:31.888Z,10.70
2022-09-17T05:38:40.808Z,10.70
2022-09-17T05:42:51.311Z,10.70
2022-09-17T05:47:00.348Z,10.70
2022-09-17T05:51:09.469Z,10.70
2022-09-17T05:55:18.410Z,10.70
2022-09-17T05:59:29.393Z,10.70
2022-09-17T06:03:38.352Z,10.70
2022-09-17T06:07:47.550Z,10.60
2022-09-17T06:11:56.930Z,10.60
2022-09-17T06:16:07.877Z,10.70
2022-09-17T06:20:17.291Z,10.70
2022-09-17T06:24:26.490Z,10.70
2022-09-17T06:28:40.635Z,10.80
2022-09-17T06:32:52.150Z,10.70
2022-09-17T06:37:01.190Z,10.70
2022-09-17T06:41:10.168Z,10.80
2022-09-17T06:45:19.184Z,10.90
2022-09-17T06:49:31.385Z,10.90
2022-09-17T06:53:40.907Z,11.00
2022-09-17T06:57:49.743Z,11.10
2022-09-17T07:01:58.809Z,11.10
2022-09-17T07:06:11.226Z,11.20
2022-09-17T07:10:20.487Z,11.20
2022-09-17T07:14:29.746Z,11.30
2022-09-17T07:18:39.266Z,11.40
2022-09-17T07:22:57.828Z,11.50
2022-09-17T07:27:07.407Z,11.50
2022-09-17T07:31:17.112Z,11.60
2022-09-17T07:35:26.249Z,11.70
2022-09-17T07:39:36.585Z,11.80
2022-09-17T07:43:46.167Z,11.90
2022-09-17T07:47:55.086Z,12.10
2022-09-17T07:52:08.687Z,12.30
2022-09-17T07:56:19.187Z,12.50
2022-09-17T08:00:28.145Z,12.80
2022-09-17T08:04:37.086Z,13.10
2022-09-17T08:08:46.157Z,13.30
2022-09-17T08:12:59.945Z,13.60
2022-09-17T08:17:09.929Z,13.90
2022-09-17T08:21:20.547Z,14.20
2022-09-17T08:25:29.420Z,14.50
2022-09-17T08:29:39.765Z,14.80
2022-09-17T08:33:49.487Z,15.10
2022-09-17T08:37:58.631Z,15.40
2022-09-17T08:42:14.505Z,15.70
2022-09-17T08:46:26.509Z,16.00
2022-09-17T08:50:39.347Z,16.30
2022-09-17T08:54:57.044Z,16.50
2022-09-17T08:59:23.826Z,16.70
2022-09-17T09:03:51.987Z,16.80
2022-09-17T09:08:04.887Z,17.00
2022-09-17T09:12:20.127Z,17.20
2022-09-17T09:16:31.469Z,17.20
2022-09-17T09:20:48.046Z,17.40
2022-09-17T09:25:07.411Z,17.70
2022-09-17T09:29:26.385Z,17.70
2022-09-17T09:33:39.129Z,17.90
2022-09-17T09:37:59.248Z,18.20
2022-09-17T09:42:15.426Z,18.20
2022-09-17T09:46:38.687Z,18.40
2022-09-17T09:51:06.092Z,18.50
2022-09-17T09:55:31.205Z,18.50
2022-09-17T09:59:41.646Z,18.50
2022-09-17T10:03:56.026Z,18.50
2022-09-17T10:08:14.065Z,18.50
2022-09-17T10:12:24.346Z,18.60
2022-09-17T10:16:36.521Z,18.70
2022-09-17T10:20:59.948Z,18.90
2022-09-17T10:25:21.686Z,19.00
2022-09-17T10:29:32.746Z,19.00
2022-09-17T10:33:53.205Z,18.70
2022-09-17T10:38:02.085Z,18.80
2022-09-17T10:42:16.125Z,18.80
2022-09-17T10:46:30.911Z,18.80
2022-09-17T10:50:39.867Z,18.80
2022-09-17T10:55:19.769Z,19.00
2022-09-17T10:59:47.789Z,19.30
2022-09-17T11:04:23.848Z,19.20
2022-09-17T11:08:39.007Z,19.30
2022-09-17T11:13:03.706Z,19.60
2022-09-17T11:17:22.045Z,19.30
2022-09-17T11:21:40.705Z,19.60
2022-09-17T11:26:00.386Z,19.90
2022-09-17T11:30:17.231Z,19.80
2022-09-17T11:34:31.286Z,19.80
2022-09-17T11:38:44.749Z,19.90
2022-09-17T11:42:58.367Z,20.10
2022-09-17T11:47:12.007Z,20.30
2022-09-17T11:51:28.246Z,20.10
2022-09-17T11:55:48.147Z,20.30
2022-09-17T12:00:02.225Z,20.60
2022-09-17T12:04:29.226Z,20.10
2022-09-17T12:08:46.187Z,20.00
2022-09-17T12:12:59.467Z,20.00
2022-09-17T12:17:14.267Z,20.10
2022-09-17T12:21:29.391Z,20.20
2022-09-17T12:25:47.465Z,20.10
2022-09-17T12:30:18.248Z,20.40
2022-09-17T12:34:43.228Z,20.50
2022-09-17T12:39:11.525Z,20.50
2022-09-17T12:43:45.192Z,20.60
2022-09-17T12:48:29.626Z,20.50
2022-09-17T12:52:57.745Z,20.50
2022-09-17T12:57:18.728Z,20.70
2022-09-17T13:01:33.777Z,20.80
2022-09-17T13:06:12.726Z,20.40
2022-09-17T13:10:49.845Z,20.40
2022-09-17T13:15:27.129Z,20.50
2022-09-17T13:19:43.886Z,20.40
2022-09-17T13:23:55.549Z,20.60
2022-09-17T13:28:12.109Z,20.70
2022-09-17T13:32:45.908Z,21.00
2022-09-17T13:36:55.346Z,21.40
2022-09-17T13:41:21.226Z,21.50
2022-09-17T13:45:32.361Z,21.40
2022-09-17T13:49:49.766Z,21.20
2022-09-17T13:54:00.834Z,20.80
2022-09-17T13:58:13.287Z,20.20
2022-09-17T14:02:38.896Z,20.00
2022-09-17T14:06:53.976Z,20.30
2022-09-17T14:11:06.587Z,20.60
2022-09-17T14:15:39.713Z,20.80
2022-09-17T14:19:53.747Z,21.00
2022-09-17T14:24:05.206Z,21.10
2022-09-17T14:28:20.087Z,21.00
2022-09-17T14:32:33.455Z,20.70
2022-09-17T14:36:45.027Z,20.50
2022-09-17T14:41:02.701Z,20.60
2022-09-17T14:45:20.925Z,20.60
2022-09-17T14:49:31.104Z,20.50
2022-09-17T14:53:41.627Z,20.30
2022-09-17T14:57:54.985Z,20.00
2022-09-17T15:02:04.276Z,20.00
2022-09-17T15:06:22.765Z,20.00
2022-09-17T15:10:33.629Z,20.20
2022-09-17T15:14:42.628Z,20.10
2022-09-17T15:18:54.747Z,20.20
2022-09-17T15:23:11.766Z,20.30
2022-09-17T15:27:26.587Z,20.10
2022-09-17T15:31:37.111Z,20.00
2022-09-17T15:36:01.465Z,19.90
2022-09-17T15:40:15.733Z,19.80
2022-09-17T15:44:31.521Z,19.80
2022-09-17T15:48:41.789Z,19.70
2022-09-17T15:52:51.186Z,19.70
2022-09-17T15:57:02.587Z,19.70
2022-09-17T16:01:56.612Z,19.50
2022-09-17T16:06:39.707Z,19.50
2022-09-17T16:10:48.788Z,19.50
2022-09-17T16:14:58.908Z,19.30
2022-09-17T16:19:08.087Z,19.20
2022-09-17T16:23:18.669Z,19.20
2022-09-17T16:27:31.767Z,19.20
2022-09-17T16:31:40.876Z,19.20
2022-09-17T16:35:49.927Z,19.10
2022-09-17T16:40:01.281Z,19.00
2022-09-17T16:44:10.428Z,19.00
2022-09-17T16:48:19.347Z,18.80
2022-09-17T16:52:28.789Z,18.80
2022-09-17T16:56:39.186Z,18.60
2022-09-17T17:00:48.197Z,18.50
2022-09-17T17:04:57.727Z,18.30
2022-09-17T17:09:06.705Z,18.30
2022-09-17T17:13:17.087Z,18.10
2022-09-17T17:17:26.249Z,18.10
2022-09-17T17:21:35.046Z,18.00
2022-09-17T17:25:44.046Z,17.90
2022-09-17T17:29:54.421Z,17.80
2022-09-17T17:34:03.491Z,17.80
2022-09-17T17:38:12.345Z,17.70
2022-09-17T17:42:21.344Z,17.60
2022-09-17T17:46:32.008Z,17.50
2022-09-17T17:50:41.026Z,17.40
2022-09-17T17:54:50.365Z,17.30
2022-09-17T17:59:00.687Z,17.20
2022-09-17T18:03:12.463Z,17.10
2022-09-17T18:07:21.566Z,17.00
2022-09-17T18:11:30.725Z,16.90
2022-09-17T18:15:40.048Z,16.80
2022-09-17T18:19:51.701Z,16.70
2022-09-17T18:24:00.746Z,16.50
2022-09-17T18:28:09.747Z,16.40
2022-09-17T18:32:18.726Z,16.30
2022-09-17T18:36:31.686Z,16.20
2022-09-17T18:40:40.738Z,15.90
2022-09-17T18:44:49.686Z,15.80
2022-09-17T18:49:00.088Z,15.70
2022-09-17T18:53:10.570Z,15.60
2022-09-17T18:57:19.530Z,15.50
2022-09-17T19:01:29.848Z,15.50
2022-09-17T19:05:38.843Z,15.40
2022-09-17T19:09:49.711Z,15.30
2022-09-17T19:13:58.977Z,15.20
2022-09-17T19:18:08.049Z,15.00
2022-09-17T19:22:18.229Z,14.90
2022-09-17T19:26:29.370Z,14.80
2022-09-17T19:30:38.353Z,14.80
2022-09-17T19:34:47.432Z,14.50
2022-09-17T19:38:58.884Z,14.50
2022-09-17T19:43:09.610Z,14.40
2022-09-17T19:47:18.709Z,14.20
2022-09-17T19:51:29.952Z,14.10
2022-09-17T19:55:40.553Z,13.90
2022-09-17T19:59:51.253Z,13.80
2022-09-17T20:04:01.849Z,13.80
2022-09-17T20:08:10.891Z,13.70
2022-09-17T20:12:19.848Z,13.70
2022-09-17T20:16:30.915Z,13.60
2022-09-17T20:20:40.609Z,13.50
2022-09-17T20:24:51.197Z,13.40
2022-09-17T20:29:00.411Z,13.40
2022-09-17T20:33:11.030Z,13.40
2022-09-17T20:37:37.709Z,13.30
2022-09-17T20:41:49.231Z,13.20
2022-09-17T20:45:58.331Z,13.00
2022-09-17T20:50:10.118Z,13.00
2022-09-17T20:54:19.213Z,13.00
2022-09-17T20:58:31.229Z,12.90
2022-09-17T21:02:41.931Z,12.80
2022-09-17T21:06:53.933Z,12.80
2022-09-17T21:11:05.989Z,12.70
2022-09-17T21:15:15.228Z,12.60
2022-09-17T21:19:25.732Z,12.50
2022-09-17T21:23:40.971Z,12.40
2022-09-17T21:27:49.951Z,12.30
2022-09-17T21:31:58.925Z,12.30
2022-09-17T21:36:10.031Z,12.20
2022-09-17T21:40:20.822Z,12.10
2022-09-17T21:44:29.970Z,12.10
2022-09-17T21:48:43.471Z,12.10
2022-09-17T21:52:53.453Z,12.00
2022-09-17T21:57:04.152Z,11.90
2022-09-17T22:01:15.812Z,11.90
2022-09-17T22:05:24.891Z,11.80
2022-09-17T22:09:33.855Z,11.80
2022-09-17T22:13:52.673Z,11.80
2022-09-17T22:18:04.261Z,11.70
2022-09-17T22:22:13.947Z,11.60
2022-09-17T22:26:25.126Z,11.50
2022-09-17T22:30:37.490Z,11.50
2022-09-17T22:34:46.470Z,11.50
2022-09-17T22:38:57.347Z,11.50
2022-09-17T22:43:06.310Z,11.50
2022-09-17T22:47:16.690Z,11.40
2022-09-17T22:51:26.245Z,11.30
2022-09-17T22:55:35.789Z,11.30
2022-09-17T22:59:44.811Z,11.20
2022-09-17T23:03:55.308Z,11.20
2022-09-17T23:08:04.848Z,11.10
2022-09-17T23:12:13.927Z,11.20
2022-09-17T23:16:23.011Z,11.10
2022-09-17T23:20:33.650Z,11.10
2022-09-17T23:24:42.771Z,11.00
2022-09-17T23:28:52.128Z,11.00
2022-09-17T23:33:01.292Z,11.00
2022-09-17T23:37:11.908Z,11.00
2022-09-17T23:41:23.949Z,11.00
2022-09-17T23:45:33.087Z,10.90
2022-09-17T23:49:42.346Z,10.90
2022-09-17T23:53:53.509Z,10.90
2022-09-17T23:58:02.827Z,10.80
